Time;durP1;ratioP1;P1;durP2;ratioP2;P2;SDS_P1;SDS_P2;PMS_P1;PMS_P2;Temp;Humidity;BMP_temperature;BMP_pressure;BME280_temperature;BME280_humidity;BME280_pressure;Samples;Min_cycle;Max_cycle;Signal;HPM_P1;HPM_P2
2022/11/01 00:00:01;;;;;;;;;;;20.00;98.90;;;;;;5113376;28;20258;-89
2022/11/01 00:02:36;;;;;;;;;;;20.00;98.90;;;;;;5114784;28;19995;-90
2022/11/01 00:05:02;;;;;;;;;;;20.00;99.20;;;;;;5113049;28;19911;-90
2022/11/01 00:07:36;;;;;;;;;;;20.00;98.80;;;;;;5115302;28;19919;-90
2022/11/01 00:10:05;;;;;;;;;;;20.00;98.80;;;;;;5112086;28;19912;-89
2022/11/01 00:12:33;;;;;;;;;;;20.00;98.90;;;;;;5111315;28;19988;-90
2022/11/01 00:15:36;;;;;;;;;;;20.00;98.80;;;;;;5111265;28;19920;-89
2022/11/01 00:18:11;;;;;;;;;;;20.00;98.90;;;;;;5111208;28;19908;-90
2022/11/01 00:20:37;;;;;;;;;;;20.00;98.90;;;;;;5113295;28;19943;-91
2022/11/01 00:23:05;;;;;;;;;;;20.00;98.80;;;;;;5114394;28;19951;-90
2022/11/01 00:25:31;;;;;;;;;;;20.00;98.70;;;;;;5115205;28;19920;-90
2022/11/01 00:27:57;;;;;;;;;;;20.00;98.80;;;;;;5115569;28;19908;-90
2022/11/01 00:30:25;;;;;;;;;;;20.00;98.80;;;;;;5116043;28;19973;-91
2022/11/01 00:32:51;;;;;;;;;;;20.00;98.80;;;;;;5113278;28;19908;-89
2022/11/01 00:35:16;;;;;;;;;;;20.00;98.70;;;;;;5111992;28;19912;-89
2022/11/01 00:37:42;;;;;;;;;;;19.90;98.70;;;;;;5114341;28;19912;-90
2022/11/01 00:40:26;;;;;;;;;;;20.00;98.70;;;;;;5112731;28;20201;-90
2022/11/01 00:42:54;;;;;;;;;;;19.90;98.70;;;;;;5111645;28;19912;-90
2022/11/01 00:45:23;;;;;;;;;;;19.90;98.70;;;;;;5113603;28;19912;-90
2022/11/01 00:47:48;;;;;;;;;;;19.90;98.70;;;;;;5113724;28;19908;-89
2022/11/01 00:50:20;;;;;;;;;;;19.90;98.70;;;;;;5113439;28;19908;-90
2022/11/01 00:52:46;;;;;;;;;;;19.90;98.70;;;;;;5113580;28;19977;-90
2022/11/01 00:55:14;;;;;;;;;;;19.90;98.70;;;;;;5113388;28;19915;-90
2022/11/01 00:57:43;;;;;;;;;;;19.90;98.70;;;;;;5115800;28;19908;-90
2022/11/01 01:00:10;;;;;;;;;;;19.90;98.70;;;;;;5115190;28;19916;-90
2022/11/01 01:02:35;;;;;;;;;;;19.90;98.70;;;;;;5116069;28;19974;-89
2022/11/01 01:05:01;;;;;;;;;;;19.90;98.70;;;;;;5115002;28;20022;-91
2022/11/01 01:07:27;;;;;;;;;;;19.90;98.70;;;;;;5116207;28;19915;-90
2022/11/01 01:09:55;;;;;;;;;;;19.90;98.70;;;;;;5117273;28;19908;-90
2022/11/01 01:12:24;;;;;;;;;;;19.90;98.70;;;;;;5118418;28;20257;-90
2022/11/01 01:14:50;;;;;;;;;;;19.90;98.70;;;;;;5118049;28;19908;-91
2022/11/01 01:17:19;;;;;;;;;;;19.90;98.80;;;;;;5117692;28;19947;-90
2022/11/01 01:19:44;;;;;;;;;;;19.90;98.80;;;;;;5116987;28;20127;-90
2022/11/01 01:22:10;;;;;;;;;;;19.80;98.70;;;;;;5115920;28;19918;-90
2022/11/01 01:24:35;;;;;;;;;;;19.80;98.70;;;;;;5116900;28;19915;-91
2022/11/01 01:27:04;;;;;;;;;;;19.80;98.80;;;;;;5117393;28;20330;-90
2022/11/01 01:29:30;;;;;;;;;;;19.80;98.80;;;;;;5118057;28;19916;-90
2022/11/01 01:31:55;;;;;;;;;;;19.80;98.80;;;;;;5118124;28;19908;-90
2022/11/01 01:34:21;;;;;;;;;;;19.80;98.80;;;;;;5118794;28;19955;-92
2022/11/01 01:36:46;;;;;;;;;;;19.80;98.80;;;;;;5117629;28;19907;-90
2022/11/01 01:39:15;;;;;;;;;;;19.80;98.80;;;;;;5092434;28;19908;-91
2022/11/01 01:41:56;;;;;;;;;;;19.80;98.80;;;;;;5115664;28;19918;-90
2022/11/01 01:44:40;;;;;;;;;;;19.80;98.90;;;;;;5117053;28;19907;-90
2022/11/01 01:47:11;;;;;;;;;;;19.80;98.90;;;;;;5117967;28;20296;-90
2022/11/01 01:49:37;;;;;;;;;;;19.80;98.90;;;;;;5117077;28;20015;-90
2022/11/01 01:52:03;;;;;;;;;;;19.80;98.90;;;;;;5115799;28;20149;-90
2022/11/01 01:54:32;;;;;;;;;;;19.80;98.90;;;;;;5114114;28;19947;-90
2022/11/01 01:57:01;;;;;;;;;;;19.80;98.90;;;;;;5113596;28;19908;-91
2022/11/01 01:59:33;;;;;;;;;;;19.80;98.90;;;;;;5114024;28;19908;-90
2022/11/01 02:02:01;;;;;;;;;;;19.80;99.00;;;;;;5112976;28;19908;-89
2022/11/01 02:04:33;;;;;;;;;;;19.80;99.00;;;;;;5111850;28;19918;-92
2022/11/01 02:07:02;;;;;;;;;;;19.80;99.00;;;;;;5113169;28;19911;-90
2022/11/01 02:09:31;;;;;;;;;;;19.80;99.00;;;;;;5115171;28;19908;-90
2022/11/01 02:11:57;;;;;;;;;;;19.80;99.00;;;;;;5116156;28;19908;-90
2022/11/01 02:14:23;;;;;;;;;;;19.80;99.00;;;;;;5116515;28;20277;-90
2022/11/01 02:17:11;;;;;;;;;;;19.80;99.00;;;;;;5115237;28;19918;-90
2022/11/01 02:19:46;;;;;;;;;;;19.70;99.00;;;;;;5115084;28;20266;-90
2022/11/01 02:22:26;;;;;;;;;;;19.70;99.00;;;;;;5114041;28;19908;-89
2022/11/01 02:25:09;;;;;;;;;;;19.70;99.00;;;;;;5113633;28;19915;-90
2022/11/01 02:27:35;;;;;;;;;;;19.70;99.00;;;;;;5113063;28;19908;-91
2022/11/01 02:30:14;;;;;;;;;;;19.70;99.00;;;;;;5112395;28;19976;-91
2022/11/01 02:32:52;;;;;;;;;;;19.70;99.00;;;;;;5113453;28;19973;-90
2022/11/01 02:35:17;;;;;;;;;;;19.70;99.00;;;;;;5113226;28;19927;-90
2022/11/01 02:37:57;;;;;;;;;;;19.70;99.10;;;;;;5113977;28;20227;-89
2022/11/01 02:40:34;;;;;;;;;;;19.70;99.10;;;;;;5111912;28;20357;-89
2022/11/01 02:43:07;;;;;;;;;;;19.70;99.10;;;;;;5113499;28;19908;-90
2022/11/01 02:45:37;;;;;;;;;;;19.70;99.10;;;;;;5113976;28;19948;-90
2022/11/01 02:48:03;;;;;;;;;;;19.70;99.10;;;;;;5114519;28;19908;-91
2022/11/01 02:50:35;;;;;;;;;;;19.70;99.10;;;;;;5115733;28;19923;-91
2022/11/01 02:53:00;;;;;;;;;;;19.70;99.10;;;;;;5114851;28;19908;-92
2022/11/01 02:55:29;;;;;;;;;;;19.70;99.10;;;;;;5113797;28;19914;-91
2022/11/01 02:57:55;;;;;;;;;;;19.70;99.10;;;;;;5112526;28;19907;-90
2022/11/01 03:00:32;;;;;;;;;;;19.70;99.10;;;;;;5111555;28;19918;-92
2022/11/01 03:02:57;;;;;;;;;;;19.70;99.10;;;;;;5111356;28;19908;-92
2022/11/01 03:05:32;;;;;;;;;;;19.70;99.20;;;;;;5112711;28;20307;-92
2022/11/01 03:08:00;;;;;;;;;;;19.70;99.10;;;;;;5113996;28;19914;-91
2022/11/01 03:10:35;;;;;;;;;;;19.70;99.20;;;;;;5115146;28;19908;-91
2022/11/01 03:13:17;;;;;;;;;;;19.70;99.20;;;;;;5114729;28;20233;-91
2022/11/01 03:15:49;;;;;;;;;;;19.70;99.20;;;;;;5114985;28;19919;-92
2022/11/01 03:18:24;;;;;;;;;;;19.60;99.10;;;;;;5114333;28;20299;-91
2022/11/01 03:20:58;;;;;;;;;;;19.60;99.20;;;;;;5113513;28;20258;-92
2022/11/01 03:23:30;;;;;;;;;;;19.60;99.20;;;;;;5113867;28;19918;-91
2022/11/01 03:26:01;;;;;;;;;;;19.60;99.20;;;;;;5113630;28;20154;-92
2022/11/01 03:28:38;;;;;;;;;;;19.60;99.20;;;;;;5115208;28;19955;-92
2022/11/01 03:31:16;;;;;;;;;;;19.60;99.20;;;;;;5114571;28;20383;-92
2022/11/01 03:33:44;;;;;;;;;;;19.60;99.30;;;;;;5114356;28;19926;-91
2022/11/01 03:36:16;;;;;;;;;;;19.60;99.30;;;;;;5113901;28;19959;-92
2022/11/01 03:39:01;;;;;;;;;;;19.60;99.30;;;;;;5114359;28;20202;-92
2022/11/01 03:41:32;;;;;;;;;;;19.60;99.30;;;;;;5114015;28;19916;-92
2022/11/01 03:44:01;;;;;;;;;;;19.60;99.30;;;;;;5114907;28;19918;-91
2022/11/01 03:46:27;;;;;;;;;;;19.60;99.30;;;;;;5114559;28;19916;-91
2022/11/01 03:48:53;;;;;;;;;;;19.60;99.40;;;;;;5115132;28;19923;-92
2022/11/01 03:51:18;;;;;;;;;;;19.60;99.40;;;;;;5113909;28;20014;-92
2022/11/01 03:53:44;;;;;;;;;;;19.60;99.60;;;;;;5113315;28;19916;-92
2022/11/01 03:56:09;;;;;;;;;;;19.60;99.40;;;;;;5113592;28;20138;-91
2022/11/01 03:58:41;;;;;;;;;;;19.60;99.40;;;;;;5113813;28;19976;-91
2022/11/01 04:01:14;;;;;;;;;;;19.60;99.40;;;;;;5113260;28;19914;-91
2022/11/01 04:03:43;;;;;;;;;;;19.60;99.40;;;;;;5114335;28;20162;-92
2022/11/01 04:06:09;;;;;;;;;;;19.60;99.40;;;;;;5111735;28;19919;-91
2022/11/01 04:08:39;;;;;;;;;;;19.60;99.40;;;;;;5112305;28;20257;-91
2022/11/01 04:11:08;;;;;;;;;;;19.60;99.40;;;;;;5112086;28;19943;-91
2022/11/01 04:13:33;;;;;;;;;;;19.60;99.40;;;;;;5112823;28;19938;-92
2022/11/01 04:21:37;;;;;;;;;;;19.60;99.50;;;;;;5115364;28;20312;-91
2022/11/01 04:24:05;;;;;;;;;;;19.60;99.50;;;;;;5115633;28;19998;-91
2022/11/01 04:26:31;;;;;;;;;;;19.60;99.50;;;;;;5115638;28;20322;-91
2022/11/01 04:28:57;;;;;;;;;;;19.60;99.50;;;;;;5098601;28;20325;-91
2022/11/01 04:31:23;;;;;;;;;;;19.60;99.50;;;;;;5117778;28;20016;-91
2022/11/01 04:33:49;;;;;;;;;;;19.60;99.60;;;;;;5117793;28;19923;-92
2022/11/01 04:36:17;;;;;;;;;;;19.60;99.60;;;;;;5118613;28;20213;-92
2022/11/01 04:38:43;;;;;;;;;;;19.60;99.60;;;;;;5118194;28;19919;-91
2022/11/01 04:41:11;;;;;;;;;;;19.60;99.60;;;;;;5116929;28;19911;-91
2022/11/01 04:43:40;;;;;;;;;;;19.60;99.60;;;;;;5116394;28;20266;-91
2022/11/01 04:46:08;;;;;;;;;;;19.60;99.60;;;;;;5116109;28;19923;-91
2022/11/01 04:48:34;;;;;;;;;;;19.60;99.60;;;;;;5116514;28;19912;-91
2022/11/01 04:51:01;;;;;;;;;;;19.60;99.60;;;;;;5114438;28;19916;-91
2022/11/01 04:53:30;;;;;;;;;;;19.50;99.60;;;;;;5116057;28;19960;-91
2022/11/01 04:56:00;;;;;;;;;;;19.60;99.60;;;;;;5117245;28;20280;-91
2022/11/01 04:58:25;;;;;;;;;;;19.60;99.70;;;;;;5119599;28;19908;-91
2022/11/01 05:00:51;;;;;;;;;;;19.60;99.70;;;;;;5117974;28;19907;-91
2022/11/01 05:03:25;;;;;;;;;;;19.60;99.70;;;;;;5118005;28;19919;-91
2022/11/01 05:05:51;;;;;;;;;;;19.60;99.70;;;;;;5118503;28;19922;-91
2022/11/01 05:08:20;;;;;;;;;;;19.60;99.70;;;;;;5119095;28;19908;-90
2022/11/01 05:10:45;;;;;;;;;;;19.60;99.70;;;;;;5118590;28;19912;-91
2022/11/01 05:13:14;;;;;;;;;;;19.60;99.70;;;;;;5116816;28;19911;-91
2022/11/01 05:15:43;;;;;;;;;;;19.50;99.60;;;;;;5116467;28;19945;-91
2022/11/01 05:18:09;;;;;;;;;;;19.60;99.70;;;;;;5117580;28;19916;-91
2022/11/01 05:20:38;;;;;;;;;;;19.50;99.70;;;;;;5117828;28;19908;-90
2022/11/01 05:23:07;;;;;;;;;;;19.50;99.70;;;;;;5117380;28;19915;-91
2022/11/01 05:25:33;;;;;;;;;;;19.50;99.70;;;;;;5117079;28;19912;-91
2022/11/01 05:28:05;;;;;;;;;;;19.50;99.70;;;;;;5117183;28;20184;-91
2022/11/01 05:30:31;;;;;;;;;;;19.50;99.70;;;;;;5117792;28;19907;-91
2022/11/01 05:33:08;;;;;;;;;;;19.50;99.70;;;;;;5116967;28;19923;-91
2022/11/01 05:35:34;;;;;;;;;;;19.50;99.70;;;;;;5113421;28;20002;-91
2022/11/01 05:38:00;;;;;;;;;;;19.50;99.70;;;;;;5114776;28;20372;-91
2022/11/01 05:40:26;;;;;;;;;;;19.50;99.70;;;;;;5113843;28;19908;-91
2022/11/01 05:42:52;;;;;;;;;;;19.50;99.70;;;;;;5113086;28;20052;-91
2022/11/01 05:45:17;;;;;;;;;;;19.50;99.70;;;;;;5116067;28;20246;-90
2022/11/01 05:47:43;;;;;;;;;;;19.50;99.80;;;;;;5115466;28;20262;-90
2022/11/01 05:50:10;;;;;;;;;;;19.50;99.80;;;;;;5114970;28;19916;-90
2022/11/01 05:52:38;;;;;;;;;;;19.50;99.80;;;;;;5115298;28;19915;-90
2022/11/01 05:55:04;;;;;;;;;;;19.50;99.80;;;;;;5114626;28;19912;-91
2022/11/01 05:57:30;;;;;;;;;;;19.50;99.80;;;;;;5113997;28;20181;-90
2022/11/01 05:59:59;;;;;;;;;;;19.50;99.80;;;;;;5114988;28;19908;-90
2022/11/01 06:02:25;;;;;;;;;;;19.50;99.80;;;;;;5116687;28;19908;-91
2022/11/01 06:04:50;;;;;;;;;;;19.50;99.80;;;;;;5115666;28;19918;-91
2022/11/01 06:07:16;;;;;;;;;;;19.50;99.80;;;;;;5114067;28;19915;-91
2022/11/01 06:09:41;;;;;;;;;;;19.50;99.80;;;;;;5112431;28;19908;-91
2022/11/01 06:12:10;;;;;;;;;;;19.50;99.80;;;;;;5113724;28;19914;-91
2022/11/01 06:14:38;;;;;;;;;;;19.50;99.80;;;;;;5114559;28;20320;-91
2022/11/01 06:17:11;;;;;;;;;;;19.50;99.80;;;;;;5114076;28;20235;-91
2022/11/01 06:19:40;;;;;;;;;;;19.50;99.80;;;;;;5112234;28;20069;-91
2022/11/01 06:22:08;;;;;;;;;;;19.50;99.80;;;;;;5112777;28;19912;-91
2022/11/01 06:24:37;;;;;;;;;;;19.50;99.80;;;;;;5114596;28;19908;-91
2022/11/01 06:27:06;;;;;;;;;;;19.50;99.80;;;;;;5115445;28;20034;-92
2022/11/01 06:29:31;;;;;;;;;;;19.50;99.80;;;;;;5115281;28;19908;-90
2022/11/01 06:31:57;;;;;;;;;;;19.50;99.80;;;;;;5115017;28;19934;-91
2022/11/01 06:34:22;;;;;;;;;;;19.60;99.80;;;;;;5114847;28;20277;-90
2022/11/01 06:36:51;;;;;;;;;;;19.50;99.80;;;;;;5115922;28;19912;-91
2022/11/01 06:39:17;;;;;;;;;;;19.50;99.80;;;;;;5116346;28;19921;-92
2022/11/01 06:41:43;;;;;;;;;;;19.60;99.80;;;;;;5115480;28;19908;-90
2022/11/01 06:44:09;;;;;;;;;;;19.60;99.80;;;;;;5115192;28;19923;-92
2022/11/01 06:46:34;;;;;;;;;;;19.60;99.80;;;;;;5114789;28;20009;-91
2022/11/01 06:49:00;;;;;;;;;;;19.60;99.80;;;;;;5114664;28;19912;-90
2022/11/01 06:51:26;;;;;;;;;;;19.60;99.80;;;;;;5114325;28;20408;-92
2022/11/01 06:53:52;;;;;;;;;;;19.60;99.80;;;;;;5113656;28;20265;-91
2022/11/01 06:56:20;;;;;;;;;;;19.60;99.80;;;;;;5114762;28;20057;-89
2022/11/01 06:58:49;;;;;;;;;;;19.60;99.80;;;;;;5113293;28;20270;-91
2022/11/01 07:01:17;;;;;;;;;;;19.60;99.80;;;;;;5114229;28;19908;-90
2022/11/01 07:03:52;;;;;;;;;;;19.60;99.80;;;;;;5111943;28;19915;-90
2022/11/01 07:06:18;;;;;;;;;;;19.60;99.80;;;;;;5113512;28;19923;-91
2022/11/01 07:08:47;;;;;;;;;;;19.60;99.80;;;;;;5112958;28;19908;-91
2022/11/01 07:11:16;;;;;;;;;;;19.60;99.80;;;;;;5113607;28;19908;-93
2022/11/01 07:13:44;;;;;;;;;;;19.60;99.80;;;;;;5111730;28;20077;-91
2022/11/01 07:16:10;;;;;;;;;;;19.60;99.80;;;;;;5111810;28;19935;-91
2022/11/01 07:18:35;;;;;;;;;;;19.60;99.80;;;;;;5111722;28;20273;-91
2022/11/01 07:21:05;;;;;;;;;;;19.60;99.70;;;;;;5112505;28;19908;-91
2022/11/01 07:23:31;;;;;;;;;;;19.70;99.70;;;;;;5112377;28;19908;-91
2022/11/01 07:26:00;;;;;;;;;;;19.70;99.60;;;;;;5110688;28;19912;-91
2022/11/01 07:28:30;;;;;;;;;;;19.70;99.50;;;;;;5111667;28;19907;-92
2022/11/01 07:30:55;;;;;;;;;;;19.70;99.40;;;;;;5111734;28;19908;-92
2022/11/01 07:33:21;;;;;;;;;;;19.80;99.40;;;;;;5111940;28;20171;-91
2022/11/01 07:35:47;;;;;;;;;;;19.80;99.20;;;;;;5113537;28;19942;-92
2022/11/01 07:38:13;;;;;;;;;;;19.90;99.10;;;;;;5114446;28;19911;-92
2022/11/01 07:40:39;;;;;;;;;;;19.90;99.00;;;;;;5110395;28;19941;-92
2022/11/01 07:43:07;;;;;;;;;;;19.90;99.00;;;;;;5110102;28;19972;-92
2022/11/01 07:45:34;;;;;;;;;;;20.10;98.80;;;;;;5109701;28;19943;-90
2022/11/01 07:48:03;;;;;;;;;;;20.30;98.30;;;;;;5110866;28;19976;-91
2022/11/01 07:50:30;;;;;;;;;;;20.50;97.80;;;;;;5109837;28;19956;-92
2022/11/01 07:53:03;;;;;;;;;;;20.80;97.00;;;;;;5109654;28;19961;-91
2022/11/01 07:55:33;;;;;;;;;;;21.30;96.00;;;;;;5109876;28;19907;-91
2022/11/01 07:57:58;;;;;;;;;;;21.60;94.80;;;;;;5110732;28;19918;-92
2022/11/01 08:00:27;;;;;;;;;;;21.70;94.20;;;;;;5111193;28;19915;-91
2022/11/01 08:03:03;;;;;;;;;;;22.20;93.00;;;;;;5110228;28;19912;-91
2022/11/01 08:05:29;;;;;;;;;;;22.60;91.50;;;;;;5112782;28;19979;-91
2022/11/01 08:07:55;;;;;;;;;;;23.60;88.60;;;;;;5113166;28;19959;-90
2022/11/01 08:10:20;;;;;;;;;;;24.50;81.70;;;;;;5114956;28;19923;-90
2022/11/01 08:12:46;;;;;;;;;;;25.30;75.90;;;;;;5115717;28;19915;-92
2022/11/01 08:15:14;;;;;;;;;;;25.80;71.50;;;;;;5116743;28;20258;-91
2022/11/01 08:17:41;;;;;;;;;;;26.30;68.40;;;;;;5114603;28;19958;-92
2022/11/01 08:20:07;;;;;;;;;;;26.60;65.70;;;;;;5115223;28;20170;-91
2022/11/01 08:22:32;;;;;;;;;;;26.90;63.90;;;;;;5115628;28;20158;-91
2022/11/01 08:25:01;;;;;;;;;;;27.20;62.30;;;;;;5117292;28;19908;-90
2022/11/01 08:27:27;;;;;;;;;;;27.40;60.90;;;;;;5116217;28;20269;-91
2022/11/01 08:29:52;;;;;;;;;;;27.60;59.70;;;;;;5116476;28;19907;-91
2022/11/01 08:32:20;;;;;;;;;;;27.80;59.10;;;;;;5115736;28;19916;-88
2022/11/01 08:34:45;;;;;;;;;;;27.90;58.40;;;;;;5114117;28;20226;-88
2022/11/01 08:37:11;;;;;;;;;;;28.10;57.90;;;;;;5114272;28;19908;-90
2022/11/01 08:39:37;;;;;;;;;;;28.30;57.50;;;;;;5115109;28;20403;-88
2022/11/01 08:42:07;;;;;;;;;;;28.40;57.00;;;;;;5110274;28;20292;-87
2022/11/01 08:44:33;;;;;;;;;;;28.60;56.80;;;;;;5114273;28;20288;-90
2022/11/01 08:47:02;;;;;;;;;;;28.70;56.50;;;;;;5113407;28;20182;-89
2022/11/01 08:49:30;;;;;;;;;;;28.90;56.30;;;;;;5113655;28;20273;-89
2022/11/01 08:51:56;;;;;;;;;;;28.90;56.00;;;;;;5113720;28;19908;-88
2022/11/01 08:54:24;;;;;;;;;;;29.00;56.00;;;;;;5115015;28;19908;-88
2022/11/01 08:56:53;;;;;;;;;;;29.10;55.80;;;;;;5116424;28;19916;-88
2022/11/01 08:59:28;;;;;;;;;;;29.10;55.50;;;;;;5116716;28;19916;-90
2022/11/01 09:01:54;;;;;;;;;;;29.20;55.20;;;;;;5116004;28;19916;-88
2022/11/01 09:04:23;;;;;;;;;;;29.20;54.90;;;;;;5115811;28;20334;-89
2022/11/01 09:06:51;;;;;;;;;;;29.20;54.70;;;;;;5118140;28;19922;-88
2022/11/01 09:09:17;;;;;;;;;;;29.30;54.60;;;;;;5119082;28;20174;-88
2022/11/01 09:11:43;;;;;;;;;;;29.30;54.30;;;;;;5118193;28;19915;-88
2022/11/01 09:14:08;;;;;;;;;;;29.20;54.20;;;;;;5116972;28;19919;-88
2022/11/01 09:16:37;;;;;;;;;;;29.20;54.10;;;;;;5117676;28;20066;-87
2022/11/01 09:19:06;;;;;;;;;;;29.10;54.00;;;;;;5119698;28;19908;-88
2022/11/01 09:21:32;;;;;;;;;;;28.90;53.90;;;;;;5120167;28;19939;-88
2022/11/01 09:24:04;;;;;;;;;;;28.50;54.00;;;;;;5110681;28;19912;-89
2022/11/01 09:26:33;;;;;;;;;;;27.90;54.30;;;;;;5115783;28;20130;-88
2022/11/01 09:28:58;;;;;;;;;;;27.20;54.70;;;;;;5114271;28;19908;-88
2022/11/01 09:31:24;;;;;;;;;;;26.70;55.40;;;;;;5113575;28;19919;-88
2022/11/01 09:33:52;;;;;;;;;;;26.30;56.30;;;;;;5113788;28;19908;-88
2022/11/01 09:36:18;;;;;;;;;;;25.90;57.10;;;;;;5114625;28;19916;-88
2022/11/01 09:38:43;;;;;;;;;;;25.50;57.90;;;;;;5115822;28;19908;-89
2022/11/01 09:41:28;;;;;;;;;;;25.10;58.70;;;;;;5115493;28;19908;-88
2022/11/01 09:43:57;;;;;;;;;;;24.80;59.40;;;;;;5112787;28;19930;-88
2022/11/01 09:46:25;;;;;;;;;;;24.60;61.20;;;;;;5113558;28;19919;-88
2022/11/01 09:48:52;;;;;;;;;;;24.40;61.80;;;;;;5114062;28;19908;-88
2022/11/01 09:51:22;;;;;;;;;;;24.20;62.70;;;;;;5110244;28;19908;-88
2022/11/01 09:53:53;;;;;;;;;;;24.10;63.40;;;;;;5108911;28;20209;-89
2022/11/01 09:56:35;;;;;;;;;;;23.90;64.30;;;;;;5110847;28;19999;-89
2022/11/01 09:59:17;;;;;;;;;;;23.80;65.10;;;;;;5112189;28;20003;-89
2022/11/01 10:01:43;;;;;;;;;;;23.70;65.70;;;;;;5113769;28;19908;-89
2022/11/01 10:04:15;;;;;;;;;;;23.60;66.00;;;;;;5113057;28;20376;-89
2022/11/01 10:06:52;;;;;;;;;;;23.50;66.30;;;;;;5112634;28;19912;-89
2022/11/01 10:09:38;;;;;;;;;;;23.40;66.80;;;;;;5115910;28;20010;-88
2022/11/01 10:12:07;;;;;;;;;;;23.40;66.70;;;;;;5071931;28;20033;-89
2022/11/01 10:14:56;;;;;;;;;;;23.20;67.30;;;;;;5110970;28;19912;-89
2022/11/01 10:17:45;;;;;;;;;;;23.20;67.70;;;;;;5072921;28;20046;-89
2022/11/01 10:20:12;;;;;;;;;;;23.10;67.80;;;;;;5111087;28;19941;-89
2022/11/01 10:22:40;;;;;;;;;;;23.00;68.50;;;;;;5110790;28;20049;-89
2022/11/01 10:25:14;;;;;;;;;;;22.90;68.90;;;;;;5108481;28;19916;-89
2022/11/01 10:27:55;;;;;;;;;;;22.80;69.00;;;;;;5110123;28;19908;-90
2022/11/01 10:30:45;;;;;;;;;;;22.80;69.80;;;;;;5112538;28;19918;-90
2022/11/01 10:33:17;;;;;;;;;;;22.70;69.60;;;;;;5111056;28;19974;-88
2022/11/01 10:36:04;;;;;;;;;;;22.70;70.10;;;;;;5111224;28;19919;-90
2022/11/01 10:38:33;;;;;;;;;;;22.60;70.10;;;;;;5110852;28;19998;-89
2022/11/01 10:41:20;;;;;;;;;;;22.50;70.40;;;;;;5112159;28;20217;-90
2022/11/01 10:43:51;;;;;;;;;;;22.50;71.10;;;;;;5070631;28;19994;-90
2022/11/01 10:46:19;;;;;;;;;;;22.40;71.60;;;;;;5110492;28;19984;-89
2022/11/01 10:48:53;;;;;;;;;;;22.40;72.00;;;;;;5111294;28;20082;-89
2022/11/01 10:51:23;;;;;;;;;;;22.30;72.30;;;;;;5110004;28;19919;-88
2022/11/01 10:54:15;;;;;;;;;;;22.30;72.80;;;;;;5110507;28;19907;-88
2022/11/01 10:56:48;;;;;;;;;;;22.20;72.90;;;;;;5098981;28;20193;-89
2022/11/01 10:59:26;;;;;;;;;;;22.20;72.90;;;;;;5110728;28;19911;-90
2022/11/01 11:01:51;;;;;;;;;;;22.10;73.40;;;;;;5114686;28;19908;-89
2022/11/01 11:04:21;;;;;;;;;;;22.10;73.30;;;;;;5115833;28;19918;-89
2022/11/01 11:06:47;;;;;;;;;;;22.00;73.60;;;;;;5114159;28;19916;-88
2022/11/01 11:09:37;;;;;;;;;;;22.00;73.90;;;;;;5117612;28;20173;-89
2022/11/01 11:12:24;;;;;;;;;;;21.90;73.50;;;;;;5116629;28;19929;-88
2022/11/01 11:14:55;;;;;;;;;;;21.90;73.80;;;;;;5116547;28;19916;-89
2022/11/01 11:17:43;;;;;;;;;;;21.80;73.20;;;;;;5116849;28;19998;-88
2022/11/01 11:20:15;;;;;;;;;;;21.80;73.20;;;;;;5116094;28;20258;-89
2022/11/01 11:22:41;;;;;;;;;;;21.80;73.50;;;;;;5114952;28;19926;-89
2022/11/01 11:25:15;;;;;;;;;;;21.70;73.50;;;;;;5115456;28;19957;-89
2022/11/01 11:27:48;;;;;;;;;;;21.70;73.90;;;;;;5116475;28;19908;-88
2022/11/01 11:30:47;;;;;;;;;;;21.70;73.80;;;;;;5115502;28;19918;-89
2022/11/01 11:33:16;;;;;;;;;;;21.60;74.20;;;;;;5070883;28;19996;-88
2022/11/01 11:35:51;;;;;;;;;;;21.60;73.90;;;;;;5116490;28;20442;-89
2022/11/01 11:38:16;;;;;;;;;;;21.60;73.70;;;;;;5116167;28;20289;-88
2022/11/01 11:40:44;;;;;;;;;;;21.60;73.20;;;;;;5114831;28;19922;-90
2022/11/01 11:43:24;;;;;;;;;;;21.50;73.20;;;;;;5090554;28;19912;-88
2022/11/01 11:46:05;;;;;;;;;;;21.50;74.00;;;;;;5103558;28;19978;-89
2022/11/01 11:48:31;;;;;;;;;;;21.50;74.20;;;;;;5098976;28;20342;-87
2022/11/01 11:51:07;;;;;;;;;;;21.40;74.50;;;;;;5100019;28;19939;-89
2022/11/01 11:53:34;;;;;;;;;;;21.40;74.50;;;;;;5098495;28;19923;-88
2022/11/01 11:56:05;;;;;;;;;;;21.40;74.60;;;;;;5100651;28;19908;-87
2022/11/01 11:58:42;;;;;;;;;;;21.40;73.80;;;;;;5098712;28;19916;-87
2022/11/01 12:01:12;;;;;;;;;;;21.30;74.60;;;;;;5097774;28;19912;-88
2022/11/01 12:03:55;;;;;;;;;;;21.30;75.10;;;;;;5092298;28;19985;-88
2022/11/01 12:06:22;;;;;;;;;;;21.30;75.00;;;;;;5090813;28;20164;-88
2022/11/01 12:08:49;;;;;;;;;;;21.30;75.50;;;;;;5090419;28;19955;-88
2022/11/01 12:11:18;;;;;;;;;;;21.30;75.30;;;;;;5089484;28;19969;-89
2022/11/01 12:13:45;;;;;;;;;;;21.20;75.80;;;;;;5088123;28;20119;-89
2022/11/01 12:16:15;;;;;;;;;;;21.20;76.00;;;;;;5086477;28;19965;-89
2022/11/01 12:18:49;;;;;;;;;;;21.20;76.30;;;;;;5089134;28;19974;-89
2022/11/01 12:21:20;;;;;;;;;;;21.20;76.60;;;;;;5089467;28;20266;-89
2022/11/01 12:23:47;;;;;;;;;;;21.20;75.80;;;;;;5088205;28;20228;-88
2022/11/01 12:26:14;;;;;;;;;;;21.20;76.00;;;;;;5087792;28;19912;-89
2022/11/01 12:28:44;;;;;;;;;;;21.10;76.30;;;;;;5108034;28;20007;-88
2022/11/01 12:31:16;;;;;;;;;;;21.10;76.50;;;;;;5103563;28;19916;-89
2022/11/01 12:33:57;;;;;;;;;;;21.10;76.50;;;;;;5095117;28;19998;-89
2022/11/01 12:36:33;;;;;;;;;;;21.10;76.50;;;;;;5093805;28;19923;-89
2022/11/01 12:39:05;;;;;;;;;;;21.00;76.80;;;;;;5089346;28;20264;-89
2022/11/01 12:41:37;;;;;;;;;;;21.00;77.00;;;;;;5086933;28;19916;-89
2022/11/01 12:44:21;;;;;;;;;;;21.00;77.80;;;;;;5087565;28;19908;-89
2022/11/01 12:46:52;;;;;;;;;;;21.00;78.20;;;;;;5087617;28;20322;-88
2022/11/01 12:49:37;;;;;;;;;;;21.00;77.30;;;;;;5087977;28;19970;-89
2022/11/01 12:52:22;;;;;;;;;;;20.90;77.50;;;;;;5088798;28;20158;-89
2022/11/01 12:55:11;;;;;;;;;;;20.90;77.80;;;;;;5091245;28;19909;-89
2022/11/01 12:57:39;;;;;;;;;;;20.90;77.60;;;;;;5091835;28;20311;-90
2022/11/01 13:00:17;;;;;;;;;;;20.90;77.90;;;;;;5089185;28;19912;-89
2022/11/01 13:02:58;;;;;;;;;;;20.90;77.70;;;;;;5090487;28;19919;-89
2022/11/01 13:05:39;;;;;;;;;;;20.90;78.40;;;;;;5088439;28;19930;-89
2022/11/01 13:08:26;;;;;;;;;;;20.80;78.70;;;;;;5087621;28;19908;-88
2022/11/01 13:10:56;;;;;;;;;;;20.80;79.00;;;;;;5089776;28;19920;-89
2022/11/01 13:13:47;;;;;;;;;;;20.80;79.10;;;;;;5090417;28;20031;-90
2022/11/01 13:16:39;;;;;;;;;;;20.80;79.50;;;;;;5092402;28;19908;-89
2022/11/01 13:19:12;;;;;;;;;;;20.70;79.10;;;;;;5086616;28;20206;-89
2022/11/01 13:22:16;;;;;;;;;;;20.70;79.80;;;;;;5090722;28;20036;-89
2022/11/01 13:24:48;;;;;;;;;;;20.70;80.50;;;;;;5031955;28;19909;-89
2022/11/01 13:27:34;;;;;;;;;;;20.70;80.50;;;;;;5030961;28;19921;-89
2022/11/01 13:30:03;;;;;;;;;;;20.70;80.70;;;;;;5065990;28;20178;-89
2022/11/01 13:35:18;;;;;;;;;;;20.70;81.50;;;;;;5085009;28;20007;-89
2022/11/01 13:37:56;;;;;;;;;;;20.60;81.70;;;;;;5093026;28;20036;-88
2022/11/01 13:40:28;;;;;;;;;;;20.60;81.80;;;;;;5093179;28;19920;-89
2022/11/01 13:42:53;;;;;;;;;;;20.60;82.40;;;;;;5093221;28;19985;-90
2022/11/01 13:45:28;;;;;;;;;;;20.60;82.70;;;;;;5091740;28;20273;-89
2022/11/01 13:47:59;;;;;;;;;;;20.60;83.10;;;;;;5092151;28;20291;-89
2022/11/01 13:50:36;;;;;;;;;;;20.60;83.50;;;;;;5089533;28;19908;-89
2022/11/01 13:53:11;;;;;;;;;;;20.60;83.70;;;;;;5090335;28;20018;-89
2022/11/01 13:55:40;;;;;;;;;;;20.60;84.00;;;;;;5089006;28;20178;-89
2022/11/01 13:58:13;;;;;;;;;;;20.60;84.40;;;;;;5089705;28;19915;-89
2022/11/01 14:00:43;;;;;;;;;;;20.50;84.40;;;;;;5088410;28;19959;-89
2022/11/01 14:03:31;;;;;;;;;;;20.50;84.50;;;;;;5090003;28;20349;-90
2022/11/01 14:06:10;;;;;;;;;;;20.50;84.70;;;;;;5089254;28;19916;-90
2022/11/01 14:08:35;;;;;;;;;;;20.50;84.60;;;;;;5090002;28;20142;-90
2022/11/01 14:11:01;;;;;;;;;;;20.50;85.20;;;;;;5089780;28;19912;-89
2022/11/01 14:13:31;;;;;;;;;;;20.50;85.40;;;;;;5090845;28;19916;-90
2022/11/01 14:15:58;;;;;;;;;;;20.50;85.30;;;;;;5089230;28;19995;-90
2022/11/01 14:18:25;;;;;;;;;;;20.50;85.20;;;;;;5089682;28;19915;-90
2022/11/01 14:21:11;;;;;;;;;;;20.50;86.30;;;;;;5088587;28;19908;-91
2022/11/01 14:23:39;;;;;;;;;;;20.50;85.70;;;;;;5066444;28;19919;-90
2022/11/01 14:26:20;;;;;;;;;;;20.40;85.60;;;;;;5095870;28;20197;-89
2022/11/01 14:28:50;;;;;;;;;;;20.40;85.80;;;;;;5102927;28;19920;-91
2022/11/01 14:31:31;;;;;;;;;;;20.40;86.00;;;;;;5085917;28;19991;-90
2022/11/01 14:34:02;;;;;;;;;;;20.40;86.20;;;;;;5087341;28;19908;-90
2022/11/01 14:36:29;;;;;;;;;;;20.40;86.00;;;;;;5086510;28;19999;-90
2022/11/01 14:39:14;;;;;;;;;;;20.40;85.90;;;;;;5087459;28;20088;-90
2022/11/01 14:41:46;;;;;;;;;;;20.40;86.30;;;;;;5089681;28;19916;-90
2022/11/01 14:44:30;;;;;;;;;;;20.40;86.50;;;;;;5087933;28;19989;-90